KRAC/RAC METAR and TAF weather

Enter ICAO airport designator
Station Type Date Time Source
KRAC METAR 2021/10/22 17:53 UTC NOAA

KRAC 221753Z AUTO 32004KT 10SM BKN036 11/01 A3006 RMK AO2 SLP182 T01060006 10111 20033 58006


Station Type Date Time Source
KRAC Decoded METAR 2021/10/22 17:53 UTC NOAA

BATTEN INTERNATIONAL AIRPORT, WI, United States (KRAC) 42-46N 87-49W 203M
Oct 22, 2021 - 01:53 PM EDT / 2021.10.22 1753 UTC
Wind: from the NW (320 degrees) at 5 MPH (4 KT):0
Visibility: 10 mile(s):0
Sky conditions: mostly cloudy
Temperature: 51.1 F (10.6 C)
Dew Point: 33.1 F (0.6 C)
Relative Humidity: 49%
Pressure (altimeter): 30.06 in. Hg (1017 hPa)
Pressure tendency: 0.02 inches (0.6 hPa) lower than three hours ago
ob: KRAC 221753Z AUTO 32004KT 10SM BKN036 11/01 A3006 RMK AO2 SLP182 T01060006 10111 20033 58006
cycle: 18

Station Type Date Time Source
KRAC TAF UTC NOAA

Error!

Example: see airport list